Flight Track Log - Related Links

Times and Time Zones

All times are in EDT time to prevent confusion due to time zone crossing. See the EJA396 flight status page for this flight to view local times or setup timezone preferences in your user account.

Time Position Orientation Groundspeed Altitude Reporting Facility
EDT Latitude Longitude Course Direction KTS MPH feet Rate Location/Type
Tue 04:26:15 PM 38.2031 -122.2925 120° Southeast 151 174 1,100  Level Oakland Center
Tue 04:27:17 PM 38.1833 -122.3594 249° West 208 239 5,200 4,049 Climbing Oakland Center
Tue 04:28:18 PM 38.1247 -122.3972 207° Southwest 243 280 9,400 3,512 Climbing Oakland Center
Tue 04:29:20 PM 38.0514 -122.4319 200° South 283 326 12,400 2,537 Climbing Oakland Center
Tue 04:30:21 PM 37.9650 -122.4708 200° South 327 376 14,600 2,066 Climbing Oakland Center
Tue 04:31:00 PM 37.7770 -122.3560 120° Southeast  Level FlightAware Approximate
Tue 04:31:22 PM 37.8619 -122.4569 174° South 384 442 16,600  Level Oakland Center
Tue 04:32:24 PM 37.7792 -122.3772 143° Southeast 380 437 18,600 2,244 Climbing Oakland Center
Tue 04:33:25 PM 37.7003 -122.2858 137° Southeast 382 440 21,200 2,508 Climbing Oakland Center
Tue 04:34:26 PM 37.6203 -122.1928 137° Southeast 389 448 23,700 2,341 Climbing Oakland Center
Tue 04:35:28 PM 37.5383 -122.0967 137° Southeast 397 457 26,000 2,146 Climbing Oakland Center
Tue 04:36:29 PM 37.4578 -122.0033 137° Southeast 398 458 28,100 1,967 Climbing Oakland Center
Tue 04:37:30 PM 37.3792 -121.9133 138° Southeast 388 447 30,000 1,415 Climbing Oakland Center
Tue 04:38:32 PM 37.2983 -121.8161 136° Southeast 384 442 31,000 488 Climbing Oakland Center
Tue 04:39:33 PM 37.1964 -121.6831 134° Southeast 445 512 31,000  Level Oakland Center
Tue 04:40:34 PM 37.1056 -121.5697 135° Southeast 459 528 31,000 780 Level Oakland Center
Tue 04:41:36 PM 37.0183 -121.4611 135° Southeast 463 533 32,600 1,659 Climbing Oakland Center
Tue 04:42:37 PM 36.9400 -121.3411 129° Southeast 451 519 34,400 1,180 Climbing Oakland Center
Tue 04:43:38 PM 36.8575 -121.2250 132° Southeast 448 516 35,000 295 Climbing Oakland Center
Tue 04:44:39 PM 36.7678 -121.0969 131° Southeast 462 532 35,000  Level Oakland Center
Tue 04:45:41 PM 36.6819 -120.9731 131° Southeast 469 540 35,000  Level Oakland Center
Tue 04:46:42 PM 36.5883 -120.8628 137° Southeast 465 535 35,000  Level Oakland Center
Tue 04:47:43 PM 36.4886 -120.7697 143° Southeast 454 522 35,000  Level Oakland Center
Tue 04:48:44 PM 36.3875 -120.6753 143° Southeast 455 524 35,000  Level Oakland Center
Tue 04:49:46 PM 36.2872 -120.5775 142° Southeast 459 528 35,000  Level Oakland Center
Tue 04:50:47 PM 36.1642 -120.4633 143° Southeast 459 528 35,000  Level Oakland Center
Tue 04:51:48 PM 36.0642 -120.3683 142° Southeast 456 525 35,000  Level Oakland Center
Tue 04:52:50 PM 35.9611 -120.2728 143° Southeast 459 528 35,000  Level Oakland Center
Tue 04:53:51 PM 35.8600 -120.1761 142° Southeast 458 527 35,000  Level Oakland Center
Tue 04:54:52 PM 35.7581 -120.0819 143° Southeast 457 526 35,000  Level Oakland Center
Tue 04:55:54 PM 35.6561 -119.9856 142° Southeast 458 527 35,000  Level Oakland Center
Tue 04:56:55 PM 35.5508 -119.8942 145° Southeast 458 527 35,000  Level Oakland Center
Tue 04:57:14 PM 35.5094 -119.8586 145° Southeast 458 527 35,000  Level Los Angeles Center
Tue 04:57:56 PM 35.4450 -119.8042 145° Southeast 460 529 35,000  Level Oakland Center
Tue 04:58:58 PM 35.3403 -119.7136 145° Southeast 458 527 35,000  Level Oakland Center
Tue 04:59:18 PM 35.2994 -119.6775 144° Southeast 457 526 35,000  Level Los Angeles Center
Tue 05:00:20 PM 35.1942 -119.5883 145° Southeast 458 527 35,000  Level Los Angeles Center
Tue 05:01:22 PM 35.0892 -119.4981 145° Southeast 459 528 35,000  Level Los Angeles Center
Tue 05:02:24 PM 34.9844 -119.4092 145° Southeast 459 528 35,000  Level Los Angeles Center
Tue 05:03:26 PM 34.8806 -119.3203 145° Southeast 457 526 35,000 -339 Level Los Angeles Center
Tue 05:04:28 PM 34.7542 -119.2136 145° Southeast 459 528 34,300 -1,452 Descending Los Angeles Center
Tue 05:05:30 PM 34.6506 -119.1253 145° Southeast 457 526 32,000 -2,592 Descending Los Angeles Center
Tue 05:06:33 PM 34.5394 -119.0369 147° Southeast 458 527 28,900 -3,072 Descending Los Angeles Center
Tue 05:07:35 PM 34.4378 -118.9500 145° Southeast 450 518 25,600 -3,048 Descending Los Angeles Center
Tue 05:08:37 PM 34.3372 -118.8767 149° Southeast 416 479 22,600 -2,855 Descending Los Angeles Center
Tue 05:09:39 PM 34.2331 -118.8367 162° South 389 448 19,700 -2,855 Descending Los Angeles Center
Tue 05:10:41 PM 34.1314 -118.7989 163° South 380 437 16,700 -2,758 Descending Los Angeles Center
Tue 05:11:43 PM 34.0192 -118.7569 163° South 365 420 14,000 -1,306 Descending Los Angeles Center
Tue 05:12:45 PM 33.9181 -118.7203 163° South 356 410 14,000  Level Los Angeles Center
Tue 05:13:47 PM 33.8283 -118.6867 163° South 355 409 14,000  Level Los Angeles Center
Tue 05:14:49 PM 33.7333 -118.6525 163° South 358 412 14,000 -968 Level Los Angeles Center
Tue 05:15:51 PM 33.6492 -118.6214 163° South 319 367 12,000 -2,081 Descending Los Angeles Center
Tue 05:16:53 PM 33.5561 -118.5708 156° South 312 359 9,700 -1,694 Descending Los Angeles Center
Tue 05:17:55 PM 33.5389 -118.4886 104° East 284 327 8,500 -1,452 Descending Los Angeles Center
Tue 05:18:57 PM 33.5511 -118.4003 81° East 272 313 6,700 -1,561 Descending Los Angeles Center
Tue 05:19:58 PM 33.5608 -118.3169 82° East 265 305 5,300 -1,561 Descending Los Angeles Center
Tue 05:21:00 PM 33.5900 -118.2403 65° Northeast 244 281 3,500 -1,113 Descending Los Angeles Center
Tue 05:22:02 PM 33.6403 -118.2114 26° Northeast 217 250 3,000 -339 Descending Los Angeles Center
Tue 05:23:04 PM 33.6875 -118.1983 13° North 188 216 2,800 -242 Descending Los Angeles Center
Tue 05:24:06 PM 33.7289 -118.2264 331° Northwest 192 221 2,500 -581 Descending Los Angeles Center
Tue 05:25:08 PM 33.7597 -118.2722 309° West 181 208 1,600 -871 Descending Los Angeles Center
Tue 05:26:10 PM 33.7872 -118.3131 309° West 148 170 700 -726 Descending Los Angeles Center
Tue 05:27:12 PM 33.8044 -118.3394 308° West 122 140 100 -581 Descending Los Angeles Center
Tue 05:29:00 PM 33.8034 -118.3396 187° South  Level Estimated

Login

Don't have an account? Register now (free) for customized features, flight alerts, and more!